Airfield :
LOGIN :

Register | Disclaimer

   EN    FR    IT 

 










Legend :    VFR   Marginal VFR   IFR   Intensive IFR   Very Intensive IFR
Visi :
Ceiling :
>= 8 km
>= 3000ft
5 to 8 km
1000 to 3000 ft
1500m to 5 km
500 to 1000 ft
800 to 1500m
200 to 500 ft
< 800m
< 200 ft
Symbols :   Thunderstorms  Fog  Heavy snow  Heavy precipitations  Wind > 20 kt
SIGMETs :     Misc.  Thunderstorms  Icing  Turbulence  Mountain Waves  Volcanic Ashes






- Airport Elevation : 481 ft
- IATA code : DNK


UKDD - Dnipropetrovs'k

CURRENT METAR :
  • 281530Z 09003MPS 2500 -RA BR BKN003 01/00 Q1011 R08/220354 TEMPO 0300 FG VV001

EXPIRED METARs :
  • 281500Z 09003MPS 1500 1400E R08/P2000N RA BR BKN003 01/00 Q1011 R08/220354 TEMPO 0300 FG VV001
  • 281430Z 08003MPS 1100 1000S R08/P2000N -RA BR BKN003 01/01 Q1011 R08/220354 TEMPO 0300 FG VV001
  • 281400Z 10003MPS 1000 0650E R08/1400N -RA PRFG VV003 01/M00 Q1011 R08/220354 TEMPO 1100 SHRA BR BKN003 BKN012CB
  • 281330Z 09003MPS 1200 R08/1600N RA BR BKN005 OVC010 01/M00 Q1011 R08/220354 TEMPO 1100 SHRA BR BKN003 BKN012CB
  • 281300Z 07003MPS 1900 -RA BR BKN003 OVC010 01/M00 Q1011 R08/220354 NOSIG

TAF AMD TAF UKDD
Valid from the 28 at 15:00 until the 29 at 12:00 UTC


281505Z 2815/2912 10005MPS 2100 -RA BR BKN003 BKN020 TX05/2912Z TN00/2906Z
TEMPO 2815/2817 0300 FG VV001
BECMG 2817/2819 0200 FG VV001
TEMPO 2819/2907 1100 SHRASN BR BKN003 BKN012CB
BECMG 2907/2909 2100 BR BKN006 BKN020



MET'MAP, your aeronautical weather chart ! - Copyright ORBIFLY December 2007 - Disclaimer

ORBIFLY MET'MAP TEAM :

Programming & Development : Alexandra Zaïnal
Concept & original design : Baudouin d'Aumeries
Assistance for programming : Marc-Olivier Méhu
Technical & hardware support : Manuel Goepfert

Contact : metmap@orbifly.com




SOURCES & CREDITS :

   NOAA